createdAt,value
2023-07-27T00:00:52.586Z,5.60
2023-07-27T00:03:21.621Z,5.28
2023-07-27T00:05:50.186Z,5.00
2023-07-27T00:08:18.623Z,4.65
2023-07-27T00:10:47.027Z,4.35
2023-07-27T00:13:17.819Z,4.50
2023-07-27T00:15:46.262Z,4.50
2023-07-27T00:18:14.748Z,4.38
2023-07-27T00:20:43.289Z,5.03
2023-07-27T00:23:12.186Z,4.95
2023-07-27T00:25:40.793Z,5.55
2023-07-27T00:28:09.206Z,5.22
2023-07-27T00:30:39.041Z,4.97
2023-07-27T00:33:07.557Z,5.00
2023-07-27T00:35:36.009Z,4.57
2023-07-27T00:38:04.520Z,4.60
2023-07-27T00:40:33.386Z,5.15
2023-07-27T00:43:02.262Z,5.10
2023-07-27T00:45:31.079Z,4.72
2023-07-27T00:48:00.894Z,4.45
2023-07-27T00:50:29.335Z,4.45
2023-07-27T00:52:57.756Z,5.22
2023-07-27T00:55:27.015Z,5.28
2023-07-27T00:57:55.532Z,5.38
2023-07-27T01:00:24.090Z,4.63
2023-07-27T01:02:53.107Z,4.55
2023-07-27T01:05:22.924Z,4.13
2023-07-27T01:07:51.395Z,4.28
2023-07-27T01:10:20.059Z,4.63
2023-07-27T01:12:54.705Z,4.80
2023-07-27T01:15:26.120Z,4.28
2023-07-27T01:17:58.875Z,4.60
2023-07-27T01:20:36.074Z,4.43
2023-07-27T01:23:35.951Z,4.60
2023-07-27T01:26:38.715Z,5.00
2023-07-27T01:29:16.855Z,4.88
2023-07-27T01:31:49.648Z,4.93
2023-07-27T01:34:23.145Z,4.30
2023-07-27T01:36:57.828Z,4.53
2023-07-27T01:39:28.789Z,4.13
2023-07-27T01:41:57.648Z,4.47
2023-07-27T01:44:29.076Z,4.57
2023-07-27T01:47:02.197Z,4.50
2023-07-27T01:49:32.336Z,4.10
2023-07-27T01:52:01.152Z,4.25
2023-07-27T01:54:29.925Z,4.82
2023-07-27T01:57:00.041Z,4.05
2023-07-27T01:59:29.471Z,3.90
2023-07-27T02:01:59.067Z,4.10
2023-07-27T02:04:28.152Z,4.50
2023-07-27T02:06:56.741Z,4.97
2023-07-27T02:09:25.279Z,4.90
2023-07-27T02:12:03.512Z,4.38
2023-07-27T02:14:39.923Z,3.85
2023-07-27T02:17:15.102Z,3.90
2023-07-27T02:19:46.142Z,3.13
2023-07-27T02:22:15.408Z,3.33
2023-07-27T02:24:44.253Z,3.13
2023-07-27T02:27:12.849Z,2.67
2023-07-27T02:29:42.109Z,3.60
2023-07-27T02:32:11.924Z,3.33
2023-07-27T02:34:40.451Z,3.90
2023-07-27T02:37:08.996Z,3.67
2023-07-27T02:39:37.528Z,3.40
2023-07-27T02:42:06.385Z,3.00
2023-07-27T02:44:34.923Z,3.30
2023-07-27T02:47:03.454Z,3.35
2023-07-27T02:49:33.368Z,3.67
2023-07-27T02:52:01.929Z,3.03
2023-07-27T02:54:30.292Z,3.15
2023-07-27T02:56:58.751Z,3.13
2023-07-27T02:59:27.149Z,3.10
2023-07-27T03:01:55.615Z,3.08
2023-07-27T03:04:24.524Z,3.15
2023-07-27T03:06:54.209Z,2.80
2023-07-27T03:09:22.735Z,3.20
2023-07-27T03:11:51.437Z,3.10
2023-07-27T03:14:19.972Z,3.00
2023-07-27T03:16:48.697Z,3.35
2023-07-27T03:19:17.247Z,3.53
2023-07-27T03:21:46.342Z,3.90
2023-07-27T03:24:18.036Z,3.83
2023-07-27T03:26:46.842Z,3.05
2023-07-27T03:29:15.251Z,3.50
2023-07-27T03:31:43.522Z,2.97
2023-07-27T03:34:12.010Z,2.67
2023-07-27T03:36:40.496Z,2.47
2023-07-27T03:39:08.973Z,2.33
2023-07-27T03:41:38.680Z,2.50
2023-07-27T03:44:07.674Z,2.47
2023-07-27T03:46:36.529Z,2.67
2023-07-27T03:49:05.320Z,2.58
2023-07-27T03:51:33.784Z,2.88
2023-07-27T03:54:02.273Z,2.95
2023-07-27T03:56:30.720Z,2.97
2023-07-27T03:59:00.512Z,3.60
2023-07-27T04:01:29.039Z,3.45
2023-07-27T04:03:57.736Z,3.67
2023-07-27T04:06:26.172Z,3.80
2023-07-27T04:08:54.707Z,3.80
2023-07-27T04:11:23.138Z,4.15
2023-07-27T04:13:51.515Z,4.15
2023-07-27T04:16:21.465Z,4.45
2023-07-27T04:18:49.851Z,4.40
2023-07-27T04:21:18.358Z,4.15
2023-07-27T04:23:47.216Z,3.47
2023-07-27T04:26:15.638Z,3.20
2023-07-27T04:28:44.124Z,3.20
2023-07-27T04:31:12.620Z,2.38
2023-07-27T04:33:42.273Z,2.38
2023-07-27T04:36:10.951Z,2.55
2023-07-27T04:38:39.360Z,2.90
2023-07-27T04:41:07.821Z,3.00
2023-07-27T04:43:36.643Z,2.80
2023-07-27T04:46:05.230Z,3.40
2023-07-27T04:48:33.888Z,2.80
2023-07-27T04:51:03.640Z,3.38
2023-07-27T04:53:32.060Z,3.38
2023-07-27T04:56:00.451Z,3.72
2023-07-27T04:58:29.417Z,4.30
2023-07-27T05:00:59.217Z,3.60
2023-07-27T05:03:28.033Z,4.22
2023-07-27T05:05:56.533Z,4.53
2023-07-27T05:08:26.221Z,3.83
2023-07-27T05:10:54.647Z,3.90
2023-07-27T05:13:23.202Z,4.80
2023-07-27T05:15:51.665Z,4.25
2023-07-27T05:18:20.309Z,4.22
2023-07-27T05:20:48.853Z,4.43
2023-07-27T05:23:17.691Z,4.13
2023-07-27T05:25:47.596Z,4.00
2023-07-27T05:28:16.149Z,4.55
2023-07-27T05:30:44.782Z,4.22
2023-07-27T05:33:13.268Z,4.32
2023-07-27T05:35:41.683Z,4.45
2023-07-27T05:38:10.245Z,4.53
2023-07-27T05:40:38.902Z,3.63
2023-07-27T05:43:08.865Z,3.88
2023-07-27T05:45:38.545Z,4.43
2023-07-27T05:48:08.054Z,4.10
2023-07-27T05:50:37.032Z,3.72
2023-07-27T05:53:06.639Z,3.70
2023-07-27T05:55:35.162Z,3.03
2023-07-27T05:58:18.655Z,3.03
2023-07-27T06:00:53.516Z,2.92
2023-07-27T06:03:22.195Z,3.00
2023-07-27T06:05:50.788Z,2.78
2023-07-27T06:08:19.220Z,2.83
2023-07-27T06:10:47.776Z,2.30
2023-07-27T06:13:16.315Z,2.00
2023-07-27T06:15:49.612Z,2.33
2023-07-27T06:18:19.397Z,2.20
2023-07-27T06:20:47.878Z,2.10
2023-07-27T06:23:16.671Z,2.13
2023-07-27T06:25:45.225Z,2.38
2023-07-27T06:28:14.188Z,2.30
2023-07-27T06:30:42.615Z,2.00
2023-07-27T06:33:11.277Z,2.03
2023-07-27T06:35:40.939Z,1.90
2023-07-27T06:38:09.599Z,1.77
2023-07-27T06:40:37.902Z,1.67
2023-07-27T06:43:06.823Z,1.58
2023-07-27T06:45:37.115Z,1.55
2023-07-27T06:48:06.092Z,1.60
2023-07-27T06:50:34.804Z,1.70
2023-07-27T06:53:04.549Z,1.45
2023-07-27T06:55:33.037Z,1.70
2023-07-27T06:58:02.461Z,1.90
2023-07-27T07:00:33.397Z,1.60
2023-07-27T07:03:02.078Z,1.70
2023-07-27T07:05:30.904Z,1.92
2023-07-27T07:07:59.846Z,1.70
2023-07-27T07:10:29.836Z,2.00
2023-07-27T07:12:58.793Z,1.90
2023-07-27T07:15:27.582Z,1.92
2023-07-27T07:17:56.305Z,2.13
2023-07-27T07:20:24.992Z,1.70
2023-07-27T07:22:53.291Z,1.73
2023-07-27T07:25:21.839Z,1.52
2023-07-27T07:27:51.557Z,1.30
2023-07-27T07:30:20.161Z,1.50
2023-07-27T07:32:48.765Z,1.20
2023-07-27T07:35:17.258Z,1.08
2023-07-27T07:37:45.782Z,0.80
2023-07-27T07:40:14.503Z,1.00
2023-07-27T07:42:43.190Z,0.80
2023-07-27T07:45:14.083Z,0.95
2023-07-27T07:47:43.016Z,1.13
2023-07-27T07:50:11.630Z,0.98
2023-07-27T07:52:40.410Z,0.60
2023-07-27T07:55:09.362Z,0.60
2023-07-27T07:57:37.640Z,0.60
2023-07-27T08:00:07.131Z,0.57
2023-07-27T08:02:36.841Z,0.40
2023-07-27T08:05:05.451Z,0.45
2023-07-27T08:07:33.901Z,0.50
2023-07-27T08:10:03.896Z,0.30
2023-07-27T08:12:32.643Z,0.50
2023-07-27T08:15:01.192Z,0.70
2023-07-27T08:17:30.563Z,0.70
2023-07-27T08:20:00.511Z,1.00
2023-07-27T08:22:29.095Z,0.82
2023-07-27T08:25:10.528Z,0.82
2023-07-27T08:27:46.215Z,0.70
2023-07-27T08:30:14.768Z,0.68
2023-07-27T08:32:43.368Z,0.80
2023-07-27T08:35:13.388Z,0.75
2023-07-27T08:37:41.661Z,0.90
2023-07-27T08:40:11.246Z,0.77
2023-07-27T08:42:40.288Z,1.00
2023-07-27T08:45:09.542Z,1.30
2023-07-27T08:47:38.610Z,0.90
2023-07-27T08:50:08.339Z,1.25
2023-07-27T08:52:38.110Z,1.75
2023-07-27T08:55:08.628Z,2.08
2023-07-27T08:57:37.244Z,1.98
2023-07-27T09:00:08.885Z,1.98
2023-07-27T09:02:40.198Z,2.00
2023-07-27T09:05:10.427Z,1.65
2023-07-27T09:07:40.143Z,1.63
2023-07-27T09:10:10.317Z,1.20
2023-07-27T09:12:39.096Z,1.33
2023-07-27T09:15:15.081Z,1.23
2023-07-27T09:17:44.241Z,1.00
2023-07-27T09:20:14.273Z,1.10
2023-07-27T09:22:47.443Z,0.88
2023-07-27T09:25:18.150Z,0.88
2023-07-27T09:27:46.762Z,1.20
2023-07-27T09:30:18.275Z,1.10
2023-07-27T09:32:48.525Z,1.20
2023-07-27T09:35:20.139Z,0.98
2023-07-27T09:37:52.995Z,1.10
2023-07-27T09:40:22.980Z,1.05
2023-07-27T09:42:51.949Z,0.90
2023-07-27T09:45:22.038Z,1.15
2023-07-27T09:47:53.451Z,0.95
2023-07-27T09:50:23.537Z,1.17
2023-07-27T09:52:53.547Z,1.42
2023-07-27T09:55:23.452Z,1.45
2023-07-27T09:57:53.556Z,1.30
2023-07-27T10:00:22.292Z,1.20
2023-07-27T10:02:51.030Z,1.70
2023-07-27T10:05:19.737Z,1.30
2023-07-27T10:07:54.754Z,1.48
2023-07-27T10:10:36.496Z,1.67
2023-07-27T10:13:08.382Z,1.80
2023-07-27T10:15:42.621Z,1.90
2023-07-27T10:18:14.763Z,1.70
2023-07-27T10:20:43.575Z,1.38
2023-07-27T10:23:13.842Z,1.50
2023-07-27T10:26:11.448Z,1.90
2023-07-27T10:28:42.080Z,1.70
2023-07-27T10:31:25.643Z,1.80
2023-07-27T10:34:23.955Z,1.92
2023-07-27T10:36:58.451Z,1.85
2023-07-27T10:39:29.925Z,1.55
2023-07-27T10:42:07.209Z,2.40
2023-07-27T10:44:51.123Z,2.10
2023-07-27T10:47:25.579Z,2.80
2023-07-27T10:49:55.151Z,3.22
2023-07-27T10:52:25.320Z,2.78
2023-07-27T10:54:54.982Z,2.88
2023-07-27T10:57:25.962Z,2.60
2023-07-27T10:59:54.915Z,3.38
2023-07-27T11:02:24.608Z,2.90
2023-07-27T11:04:54.414Z,2.72
2023-07-27T11:07:30.533Z,2.53
2023-07-27T11:09:59.433Z,3.08
2023-07-27T11:12:29.796Z,2.40
2023-07-27T11:15:15.306Z,2.15
2023-07-27T11:17:43.894Z,2.00
2023-07-27T11:20:14.355Z,1.65
2023-07-27T11:22:44.565Z,1.10
2023-07-27T11:25:13.794Z,2.33
2023-07-27T11:27:43.997Z,1.63
2023-07-27T11:30:18.759Z,1.40
2023-07-27T11:32:59.095Z,2.10
2023-07-27T11:35:27.729Z,1.52
2023-07-27T11:37:56.243Z,1.70
2023-07-27T11:40:25.132Z,1.40
2023-07-27T11:42:55.202Z,1.10
2023-07-27T11:45:23.663Z,1.30
2023-07-27T11:47:54.743Z,1.58
2023-07-27T11:50:23.510Z,1.30
2023-07-27T11:52:58.751Z,1.65
2023-07-27T11:55:27.703Z,1.30
2023-07-27T11:57:57.450Z,1.55
2023-07-27T12:00:25.987Z,1.15
2023-07-27T12:02:59.960Z,1.45
2023-07-27T12:05:33.101Z,1.13
2023-07-27T12:10:33.126Z,1.30
2023-07-27T12:15:37.849Z,1.30
2023-07-27T12:18:07.647Z,1.20
2023-07-27T12:25:40.699Z,1.33
2023-07-27T12:30:43.846Z,1.90
2023-07-27T12:33:12.760Z,1.23
2023-07-27T12:35:41.309Z,2.15
2023-07-27T12:43:14.318Z,1.40
2023-07-27T12:45:42.859Z,1.77
2023-07-27T12:48:11.440Z,1.58
2023-07-27T12:50:42.253Z,1.10
2023-07-27T12:53:11.051Z,1.20
2023-07-27T12:55:39.527Z,1.30
2023-07-27T12:58:08.002Z,1.10
2023-07-27T13:00:37.729Z,1.27
2023-07-27T13:03:06.881Z,1.00
2023-07-27T13:05:35.354Z,1.27
2023-07-27T13:08:03.783Z,1.10
2023-07-27T13:10:32.205Z,0.80
2023-07-27T13:13:00.702Z,1.25
2023-07-27T13:15:29.322Z,0.90
2023-07-27T13:18:04.431Z,1.20
2023-07-27T13:20:34.996Z,1.27
2023-07-27T13:23:03.705Z,1.10
2023-07-27T13:25:32.527Z,0.98
2023-07-27T13:28:01.017Z,1.10
2023-07-27T13:30:30.380Z,1.08
2023-07-27T13:33:01.054Z,1.27
2023-07-27T13:35:29.518Z,0.85
2023-07-27T13:37:58.249Z,1.20
2023-07-27T13:40:26.732Z,1.10
2023-07-27T13:42:55.673Z,1.17
2023-07-27T13:45:24.937Z,1.30
2023-07-27T13:48:06.865Z,1.50
2023-07-27T13:50:39.285Z,1.60
2023-07-27T13:53:09.955Z,1.60
2023-07-27T13:55:38.457Z,1.40
2023-07-27T13:58:06.951Z,1.52
2023-07-27T14:00:35.538Z,1.58
2023-07-27T14:03:04.413Z,2.08
2023-07-27T14:05:33.114Z,1.52
2023-07-27T14:08:02.881Z,1.40
2023-07-27T14:10:31.437Z,1.85
2023-07-27T14:12:59.997Z,1.75
2023-07-27T14:15:28.389Z,2.20
2023-07-27T14:17:56.875Z,1.75
2023-07-27T14:20:25.408Z,1.80
2023-07-27T14:22:54.496Z,2.13
2023-07-27T14:25:24.222Z,2.20
2023-07-27T14:30:24.245Z,1.67
2023-07-27T14:32:52.947Z,1.55
2023-07-27T14:35:24.233Z,2.00
2023-07-27T14:37:54.535Z,1.80
2023-07-27T14:42:56.252Z,2.15
2023-07-27T14:45:25.256Z,1.77
2023-07-27T14:47:53.748Z,1.75
2023-07-27T14:53:07.437Z,1.70
2023-07-27T14:55:37.087Z,1.88
2023-07-27T14:58:05.654Z,2.13
2023-07-27T15:00:35.809Z,1.48
2023-07-27T15:03:06.253Z,1.10
2023-07-27T15:05:35.771Z,2.10
2023-07-27T15:08:05.625Z,1.60
2023-07-27T15:10:37.903Z,1.90
2023-07-27T15:13:08.960Z,1.90
2023-07-27T15:15:38.104Z,1.60
2023-07-27T15:18:07.201Z,1.77
2023-07-27T15:20:41.407Z,1.73
2023-07-27T15:23:10.523Z,1.65
2023-07-27T15:25:38.939Z,1.95
2023-07-27T15:28:08.849Z,1.70
2023-07-27T15:30:37.493Z,1.60
2023-07-27T15:33:06.252Z,1.40
2023-07-27T15:35:35.544Z,1.60
2023-07-27T15:38:04.409Z,1.58
2023-07-27T15:40:32.899Z,1.40
2023-07-27T15:43:02.262Z,2.00
2023-07-27T15:45:31.892Z,1.40
2023-07-27T15:48:00.361Z,1.60
2023-07-27T15:50:28.868Z,1.75
2023-07-27T15:52:57.544Z,1.55
2023-07-27T15:55:26.116Z,1.23
2023-07-27T15:57:54.700Z,1.42
2023-07-27T16:00:23.424Z,1.30
2023-07-27T16:02:53.416Z,1.40
2023-07-27T16:05:23.623Z,1.27
2023-07-27T16:07:52.144Z,1.55
2023-07-27T16:10:20.579Z,1.10
2023-07-27T16:12:49.370Z,1.30
2023-07-27T16:15:18.575Z,1.20
2023-07-27T16:17:47.081Z,1.40
2023-07-27T16:20:16.875Z,1.67
2023-07-27T16:22:45.562Z,1.60
2023-07-27T16:25:14.186Z,1.50
2023-07-27T16:27:42.730Z,1.70
2023-07-27T16:30:11.699Z,1.60
2023-07-27T16:32:40.166Z,1.40
2023-07-27T16:35:10.330Z,1.98
2023-07-27T16:37:40.139Z,1.40
2023-07-27T16:40:09.486Z,1.40
2023-07-27T16:42:38.046Z,1.17
2023-07-27T16:45:07.380Z,1.10
2023-07-27T16:47:35.810Z,1.10
2023-07-27T16:50:04.458Z,1.38
2023-07-27T16:52:32.928Z,0.80
2023-07-27T16:55:03.228Z,1.02
2023-07-27T16:57:31.749Z,0.93
2023-07-27T17:00:00.170Z,1.00
2023-07-27T17:02:28.671Z,1.15
2023-07-27T17:04:57.584Z,1.00
2023-07-27T17:07:25.860Z,1.30
2023-07-27T17:09:54.458Z,1.30
2023-07-27T17:12:24.283Z,1.30
2023-07-27T17:14:52.922Z,0.90
2023-07-27T17:17:21.428Z,0.75
2023-07-27T17:19:49.760Z,0.60
2023-07-27T17:22:18.273Z,0.77
2023-07-27T17:24:46.951Z,0.60
2023-07-27T17:27:15.398Z,0.63
2023-07-27T17:29:46.117Z,0.77
2023-07-27T17:32:15.879Z,0.70
2023-07-27T17:34:44.476Z,0.65
2023-07-27T17:37:12.978Z,0.80
2023-07-27T17:39:41.205Z,0.60
2023-07-27T17:42:10.094Z,0.70
2023-07-27T17:44:38.942Z,0.75
2023-07-27T17:47:09.026Z,0.50
2023-07-27T17:49:37.526Z,0.70
2023-07-27T17:52:07.004Z,0.63
2023-07-27T17:54:35.600Z,0.60
2023-07-27T17:57:04.021Z,0.60
2023-07-27T17:59:32.427Z,0.40
2023-07-27T18:02:00.776Z,0.60
2023-07-27T18:04:30.596Z,0.52
2023-07-27T18:06:59.045Z,0.30
2023-07-27T18:09:27.420Z,0.45
2023-07-27T18:11:55.724Z,0.40
2023-07-27T18:14:24.241Z,0.55
2023-07-27T18:16:52.688Z,0.30
2023-07-27T18:19:21.146Z,0.40
2023-07-27T18:21:50.773Z,0.50
2023-07-27T18:24:28.242Z,0.50
2023-07-27T18:26:58.041Z,0.60
2023-07-27T18:29:26.642Z,0.60
2023-07-27T18:31:55.306Z,0.70
2023-07-27T18:34:23.803Z,0.60
2023-07-27T18:36:53.805Z,0.85
2023-07-27T18:39:22.141Z,0.68
2023-07-27T18:41:51.850Z,0.90
2023-07-27T18:44:20.703Z,0.70
2023-07-27T18:46:49.165Z,1.00
2023-07-27T18:49:17.580Z,0.80
2023-07-27T18:51:46.166Z,0.77
2023-07-27T18:54:15.871Z,0.77
2023-07-27T18:56:44.288Z,1.02
2023-07-27T18:59:12.719Z,0.80
2023-07-27T19:01:41.322Z,0.60
2023-07-27T19:04:10.215Z,0.60
2023-07-27T19:06:38.905Z,0.70
2023-07-27T19:09:07.755Z,0.60
2023-07-27T19:11:37.364Z,0.60
2023-07-27T19:14:05.822Z,0.93
2023-07-27T19:16:34.393Z,0.80
2023-07-27T19:19:02.980Z,0.88
2023-07-27T19:21:31.420Z,0.80
2023-07-27T19:24:01.461Z,0.90
2023-07-27T19:26:30.862Z,0.68
2023-07-27T19:29:00.868Z,0.90
2023-07-27T19:31:29.667Z,0.70
2023-07-27T19:33:58.182Z,0.60
2023-07-27T19:36:28.585Z,0.90
2023-07-27T19:38:58.476Z,0.60
2023-07-27T19:41:27.007Z,0.63
2023-07-27T19:43:55.892Z,0.70
2023-07-27T19:46:25.757Z,0.90
2023-07-27T19:48:54.690Z,0.95
2023-07-27T19:51:23.429Z,1.05
2023-07-27T19:53:51.782Z,1.17
2023-07-27T19:56:20.355Z,0.80
2023-07-27T19:58:49.292Z,0.90
2023-07-27T20:01:18.312Z,0.73
2023-07-27T20:03:49.492Z,0.70
2023-07-27T20:06:18.727Z,1.00
2023-07-27T20:08:49.760Z,0.82
2023-07-27T20:11:18.700Z,0.68
2023-07-27T20:13:47.419Z,0.70
2023-07-27T20:16:16.327Z,0.60
2023-07-27T20:18:46.631Z,0.70
2023-07-27T20:21:16.816Z,0.70
2023-07-27T20:23:45.682Z,0.90
2023-07-27T20:26:14.170Z,0.60
2023-07-27T20:28:42.683Z,1.00
2023-07-27T20:31:11.155Z,0.88
2023-07-27T20:33:40.079Z,1.30
2023-07-27T20:36:08.909Z,1.00
2023-07-27T20:38:39.505Z,1.45
2023-07-27T20:41:08.915Z,1.10
2023-07-27T20:43:37.704Z,1.50
2023-07-27T20:46:06.202Z,1.90
2023-07-27T20:48:37.065Z,2.30
2023-07-27T20:51:06.878Z,1.88
2023-07-27T20:53:35.926Z,2.40
2023-07-27T20:56:11.981Z,2.33
2023-07-27T20:58:40.599Z,2.20
2023-07-27T21:01:09.198Z,2.85
2023-07-27T21:03:38.094Z,3.50
2023-07-27T21:06:06.807Z,3.78
2023-07-27T21:08:36.930Z,4.25
2023-07-27T21:11:09.603Z,4.85
2023-07-27T21:13:39.067Z,4.93
2023-07-27T21:16:09.033Z,5.35
2023-07-27T21:18:38.076Z,5.32
2023-07-27T21:21:14.819Z,5.63
2023-07-27T21:23:43.416Z,5.05
2023-07-27T21:26:13.395Z,4.90
2023-07-27T21:28:42.040Z,4.80
2023-07-27T21:31:10.414Z,4.78
2023-07-27T21:33:39.186Z,4.50
2023-07-27T21:36:07.779Z,4.72
2023-07-27T21:38:36.317Z,4.22
2023-07-27T21:41:04.758Z,6.13
2023-07-27T21:43:34.936Z,5.55
2023-07-27T21:46:03.590Z,6.68
2023-07-27T21:48:32.041Z,6.95
2023-07-27T21:51:00.727Z,6.22
2023-07-27T21:53:29.253Z,6.78
2023-07-27T21:55:57.717Z,6.80
2023-07-27T21:58:26.222Z,7.32
2023-07-27T22:00:56.116Z,6.75
2023-07-27T22:03:24.989Z,5.70
2023-07-27T22:05:53.401Z,6.07
2023-07-27T22:08:22.055Z,6.00
2023-07-27T22:10:50.406Z,5.30
2023-07-27T22:13:18.802Z,5.15
2023-07-27T22:15:47.400Z,6.97
2023-07-27T22:18:17.324Z,5.63
2023-07-27T22:20:46.073Z,5.22
2023-07-27T22:23:15.723Z,5.43
2023-07-27T22:25:44.909Z,4.85
2023-07-27T22:28:13.842Z,5.32
2023-07-27T22:30:47.103Z,4.63
2023-07-27T22:33:17.155Z,5.50
2023-07-27T22:35:47.101Z,5.28
2023-07-27T22:38:16.378Z,4.72
2023-07-27T22:40:54.852Z,5.80
2023-07-27T22:43:23.620Z,5.70
2023-07-27T22:45:52.959Z,5.55
2023-07-27T22:48:23.232Z,5.93
2023-07-27T22:50:51.933Z,5.82
2023-07-27T22:53:20.539Z,5.85
2023-07-27T22:55:51.187Z,5.97
2023-07-27T22:58:19.718Z,5.90
2023-07-27T23:00:48.436Z,6.75
2023-07-27T23:03:17.306Z,6.75
2023-07-27T23:05:46.944Z,6.60
2023-07-27T23:08:15.370Z,7.35
2023-07-27T23:10:43.895Z,6.32
2023-07-27T23:13:12.460Z,7.50
2023-07-27T23:15:41.139Z,7.93
2023-07-27T23:18:09.579Z,9.80
2023-07-27T23:20:37.982Z,8.40
2023-07-27T23:23:08.036Z,7.88
2023-07-27T23:25:36.466Z,7.38
2023-07-27T23:28:05.072Z,7.07
2023-07-27T23:30:33.970Z,6.90
2023-07-27T23:33:02.571Z,6.90
2023-07-27T23:35:31.149Z,7.13
2023-07-27T23:37:59.639Z,6.13
2023-07-27T23:40:29.265Z,5.78
2023-07-27T23:42:58.108Z,6.32
2023-07-27T23:45:26.651Z,5.45
2023-07-27T23:47:55.215Z,6.18
2023-07-27T23:50:23.881Z,5.10
2023-07-27T23:52:52.292Z,4.88
2023-07-27T23:55:20.745Z,5.78
2023-07-27T23:57:50.509Z,5.28
